createdAt,value
2023-02-02T00:01:11.660Z,101312.16
2023-02-02T00:11:15.907Z,101308.72
2023-02-02T00:21:20.240Z,101317.28
2023-02-02T00:31:23.444Z,101309.59
2023-02-02T00:41:27.762Z,101315.56
2023-02-02T00:51:30.561Z,101318.16
2023-02-02T01:01:35.488Z,101306.16
2023-02-02T01:11:38.549Z,101301.03
2023-02-02T01:21:42.976Z,101309.59
2023-02-02T01:31:46.563Z,101319.00
2023-02-02T01:41:51.262Z,101335.22
2023-02-02T01:51:57.874Z,101337.78
2023-02-02T02:02:03.768Z,101333.53
2023-02-02T02:12:13.558Z,101342.91
2023-02-02T02:22:39.136Z,101339.47
2023-02-02T02:32:48.537Z,101348.88
2023-02-02T02:42:58.730Z,101320.66
2023-02-02T02:53:07.011Z,101320.72
2023-02-02T03:03:18.155Z,101326.66
2023-02-02T03:13:22.590Z,101331.81
2023-02-02T03:23:25.803Z,101331.78
2023-02-02T03:33:32.032Z,101324.97
2023-02-02T03:43:35.144Z,101336.09
2023-02-02T03:53:39.504Z,101344.59
2023-02-02T04:03:42.585Z,101358.25
2023-02-02T04:13:46.945Z,101360.81
2023-02-02T04:23:49.926Z,101366.78
2023-02-02T04:33:54.851Z,101373.63
2023-02-02T04:43:57.828Z,101371.94
2023-02-02T04:54:02.285Z,101380.44
2023-02-02T05:04:05.585Z,101376.19
2023-02-02T05:14:10.036Z,101381.31
2023-02-02T05:24:13.509Z,101383.84
2023-02-02T05:34:17.845Z,101400.94
2023-02-02T05:44:21.004Z,101405.19
2023-02-02T05:54:26.350Z,101392.44
2023-02-02T06:04:29.736Z,101381.31
2023-02-02T06:14:34.059Z,101385.56
2023-02-02T06:24:36.843Z,101394.97
2023-02-02T06:34:41.040Z,101421.47
2023-02-02T06:44:43.817Z,101433.44
2023-02-02T06:54:47.944Z,101430.00
2023-02-02T07:04:50.895Z,101438.56
2023-02-02T07:14:56.407Z,101440.28
2023-02-02T07:25:02.949Z,101441.97
2023-02-02T07:35:08.954Z,101454.81
2023-02-02T07:45:36.223Z,101450.53
2023-02-02T07:55:37.688Z,101460.78
2023-02-02T08:05:40.709Z,101457.38
2023-02-02T08:15:45.685Z,101471.88
2023-02-02T08:25:48.778Z,101466.75
2023-02-02T08:35:53.108Z,101470.13
2023-02-02T08:46:01.634Z,101485.53
2023-02-02T08:56:12.191Z,101498.31
2023-02-02T09:06:17.845Z,101502.59
2023-02-02T09:16:23.303Z,101506.88
2023-02-02T09:26:28.192Z,101506.91
2023-02-02T09:36:33.611Z,101545.41
2023-02-02T09:46:48.730Z,101563.34
2023-02-02T09:56:58.051Z,101583.94
2023-02-02T10:07:08.783Z,101572.88
2023-02-02T10:17:33.044Z,101577.16
2023-02-02T10:27:39.406Z,101603.72
2023-02-02T10:37:51.466Z,101630.19
2023-02-02T10:47:54.358Z,101630.16
2023-02-02T10:58:09.716Z,101626.75
2023-02-02T11:08:15.398Z,101607.09
2023-02-02T11:18:30.224Z,101617.44
2023-02-02T11:28:37.294Z,101612.31
2023-02-02T11:38:41.984Z,101623.44
2023-02-02T11:48:52.026Z,101627.72
2023-02-02T11:58:59.253Z,101617.44
2023-02-02T12:09:08.362Z,101620.88
2023-02-02T12:19:31.053Z,101599.50
2023-02-02T12:29:52.978Z,101590.09
2023-02-02T12:40:15.640Z,101582.38
2023-02-02T12:50:29.917Z,101593.47
2023-02-02T13:00:53.662Z,101590.06
2023-02-02T13:11:04.917Z,101610.59
2023-02-02T13:21:15.288Z,101613.19
2023-02-02T13:31:24.528Z,101627.75
2023-02-02T13:41:30.757Z,101637.16
2023-02-02T13:51:54.892Z,101622.59
2023-02-02T14:02:00.703Z,101616.63
2023-02-02T14:12:07.990Z,101617.47
2023-02-02T14:22:40.665Z,101632.88
2023-02-02T14:32:44.083Z,101632.03
2023-02-02T14:43:17.569Z,101632.03
2023-02-02T14:53:26.177Z,101644.88
2023-02-02T15:03:53.960Z,101647.44
2023-02-02T15:14:07.455Z,101668.84
2023-02-02T15:24:26.124Z,101663.69
2023-02-02T15:34:38.950Z,101676.53
2023-02-02T15:44:44.136Z,101702.25
2023-02-02T15:54:53.339Z,101702.25
2023-02-02T16:04:57.921Z,101712.50
2023-02-02T16:15:01.504Z,101716.81
2023-02-02T16:25:14.268Z,101716.78
2023-02-02T16:35:34.719Z,101725.34
2023-02-02T16:45:48.057Z,101740.78
2023-02-02T16:55:51.974Z,101743.34
2023-02-02T17:05:58.746Z,101741.63
2023-02-02T17:16:02.853Z,101742.47
2023-02-02T17:26:36.215Z,101755.34
2023-02-02T17:36:40.783Z,101781.03
2023-02-02T17:46:45.435Z,101778.44
2023-02-02T17:56:48.633Z,101784.44
2023-02-02T18:07:18.202Z,101795.53
2023-02-02T18:17:21.399Z,101799.00
2023-02-02T18:27:26.393Z,101805.81
2023-02-02T18:37:31.723Z,101809.22
2023-02-02T18:47:36.102Z,101811.84
2023-02-02T18:57:39.251Z,101799.84
2023-02-02T19:07:56.813Z,101795.56
2023-02-02T19:18:00.103Z,101791.25
2023-02-02T19:28:15.254Z,101800.69
2023-02-02T19:38:20.855Z,101810.97
2023-02-02T19:48:27.354Z,101815.22
2023-02-02T19:58:37.568Z,101807.53
2023-02-02T20:08:44.474Z,101815.25
2023-02-02T20:18:53.987Z,101811.91
2023-02-02T20:29:00.274Z,101823.84
2023-02-02T20:39:24.013Z,101817.84
2023-02-02T20:49:29.260Z,101815.25
2023-02-02T20:59:33.007Z,101823.84
2023-02-02T21:09:37.636Z,101833.25
2023-02-02T21:19:40.774Z,101834.94
2023-02-02T21:29:45.293Z,101828.97
2023-02-02T21:39:51.221Z,101842.69
2023-02-02T21:49:57.961Z,101850.38
2023-02-02T22:00:01.966Z,101870.91
2023-02-02T22:10:30.220Z,101863.19
2023-02-02T22:20:36.725Z,101853.72
2023-02-02T22:30:42.482Z,101860.53
2023-02-02T22:41:10.035Z,101858.03
2023-02-02T22:51:14.942Z,101860.53
2023-02-02T23:01:18.200Z,101866.53
2023-02-02T23:11:22.710Z,101872.50
2023-02-02T23:21:26.029Z,101863.13
2023-02-02T23:31:30.645Z,101847.72
2023-02-02T23:41:33.777Z,101847.72
2023-02-02T23:51:38.890Z,101836.59
